Time;durP1;ratioP1;P1;durP2;ratioP2;P2;SDS_P1;SDS_P2;PMS_P1;PMS_P2;Temp;Humidity;BMP_temperature;BMP_pressure;BME280_temperature;BME280_humidity;BME280_pressure;Samples;Min_cycle;Max_cycle;Signal;HPM_P1;HPM_P2
2021/10/27 00:01:00;;;;;;;10.70;8.00;;;11.60;36.90;;;;;;5073394;28;20205;-64
2021/10/27 00:03:27;;;;;;;10.53;8.70;;;11.70;1.00;;;;;;5073143;28;20296;-64
2021/10/27 00:05:54;;;;;;;13.23;8.00;;;11.60;22.70;;;;;;5072915;28;20262;-64
2021/10/27 00:08:21;;;;;;;10.20;8.33;;;11.70;99.90;;;;;;5072567;28;20200;-63
2021/10/27 00:10:48;;;;;;;11.93;8.80;;;11.70;99.90;;;;;;5072871;28;20213;-64
2021/10/27 00:13:16;;;;;;;13.47;8.70;;;11.70;99.90;;;;;;5072814;28;20205;-64
2021/10/27 00:15:43;;;;;;;11.27;7.80;;;11.70;99.90;;;;;;5072685;28;20207;-63
2021/10/27 00:18:10;;;;;;;13.90;9.03;;;11.80;99.90;;;;;;5072965;28;20228;-64
2021/10/27 00:20:36;;;;;;;13.10;9.30;;;11.70;1.00;;;;;;5072902;28;20209;-64
2021/10/27 00:23:03;;;;;;;12.30;8.97;;;11.70;1.00;;;;;;5072699;28;20278;-64
2021/10/27 00:25:31;;;;;;;13.70;9.83;;;11.70;99.90;;;;;;5072375;28;20202;-64
2021/10/27 00:27:58;;;;;;;13.00;10.27;;;11.70;99.90;;;;;;5072552;28;20655;-64
2021/10/27 00:30:26;;;;;;;12.43;9.93;;;11.70;1.00;;;;;;5072626;28;20209;-64
2021/10/27 00:32:53;;;;;;;14.37;10.50;;;11.70;1.00;;;;;;5072601;28;20282;-64
2021/10/27 00:35:19;;;;;;;14.07;9.97;;;11.70;1.00;;;;;;5072241;28;20292;-63
2021/10/27 00:37:46;;;;;;;13.97;10.47;;;11.70;28.30;;;;;;5072623;28;20221;-64
2021/10/27 00:40:13;;;;;;;12.67;10.47;;;11.70;33.40;;;;;;5072256;28;20225;-64
2021/10/27 00:42:40;;;;;;;15.27;10.90;;;11.80;1.00;;;;;;5072663;28;20585;-64
2021/10/27 00:45:07;;;;;;;14.67;10.00;;;11.80;1.00;;;;;;5072068;28;20211;-63
2021/10/27 00:47:35;;;;;;;13.40;10.80;;;11.80;1.00;;;;;;5072415;28;20665;-63
2021/10/27 00:50:03;;;;;;;13.23;10.00;;;11.80;99.90;;;;;;5072325;28;20200;-64
2021/10/27 00:52:29;;;;;;;14.60;10.00;;;11.80;1.00;;;;;;5072177;28;20233;-64
2021/10/27 00:54:57;;;;;;;14.47;9.77;;;11.80;99.20;;;;;;5071826;28;20212;-64
2021/10/27 00:57:25;;;;;;;12.93;9.77;;;11.80;99.90;;;;;;5072328;28;20591;-64
2021/10/27 00:59:52;;;;;;;14.77;10.03;;;11.80;1.00;;;;;;5072284;28;20282;-64
2021/10/27 01:02:19;;;;;;;13.37;9.90;;;11.80;1.00;;;;;;5071959;28;20709;-64
2021/10/27 01:04:48;;;;;;;13.47;9.40;;;11.80;99.90;;;;;;5071933;28;20205;-63
2021/10/27 01:07:16;;;;;;;10.37;8.80;;;11.90;99.90;;;;;;5071858;28;20577;-64
2021/10/27 01:09:43;;;;;;;13.53;9.50;;;11.90;1.00;;;;;;5072299;28;20207;-64
2021/10/27 01:12:10;;;;;;;11.17;8.80;;;11.90;99.90;;;;;;5072075;28;20230;-64
2021/10/27 01:14:39;;;;;;;11.70;8.93;;;11.90;1.00;;;;;;5071852;28;20606;-65
2021/10/27 01:17:08;;;;;;;9.87;8.63;;;11.90;99.90;;;;;;5071935;28;20669;-64
2021/10/27 01:19:44;;;;;;;10.20;8.90;;;12.00;99.90;;;;;;5070922;28;20274;-64
2021/10/27 01:22:11;;;;;;;11.00;8.60;;;12.00;99.90;;;;;;5071866;28;20228;-64
2021/10/27 01:24:38;;;;;;;12.30;8.90;;;12.00;99.90;;;;;;5071657;28;20289;-64
2021/10/27 01:27:05;;;;;;;12.37;8.90;;;12.00;52.60;;;;;;5071782;28;20706;-63
2021/10/27 01:29:31;;;;;;;13.63;9.50;;;12.00;99.90;;;;;;5071918;28;20207;-64
2021/10/27 01:31:58;;;;;;;14.63;8.43;;;12.10;99.90;;;;;;5071789;28;20232;-64
2021/10/27 01:34:25;;;;;;;10.23;8.53;;;12.00;99.90;;;;;;5071636;28;20569;-64
2021/10/27 01:36:53;;;;;;;14.37;8.80;;;12.00;99.90;;;;;;5071570;28;20226;-64
2021/10/27 01:39:20;;;;;;;11.27;8.27;;;12.10;1.00;;;;;;5071668;28;20229;-64
2021/10/27 01:41:47;;;;;;;11.23;8.37;;;12.00;1.00;;;;;;5071702;28;20650;-64
2021/10/27 01:44:14;;;;;;;10.23;7.47;;;12.10;1.00;;;;;;5071723;28;20235;-64
2021/10/27 01:46:41;;;;;;;9.77;7.37;;;12.10;99.90;;;;;;5071317;28;20659;-62
2021/10/27 01:49:11;;;;;;;12.57;7.80;;;12.20;32.10;;;;;;5071604;28;20674;-64
2021/10/27 01:51:38;;;;;;;9.70;7.57;;;12.20;1.00;;;;;;5071606;28;20304;-64
2021/10/27 01:54:06;;;;;;;10.07;7.43;;;12.20;1.00;;;;;;5071715;28;20202;-64
2021/10/27 01:56:33;;;;;;;13.70;7.83;;;12.20;1.00;;;;;;5071245;28;20845;-64
2021/10/27 01:59:00;;;;;;;14.57;7.57;;;12.20;99.90;;;;;;5071452;28;20228;-64
2021/10/27 02:01:27;;;;;;;12.57;7.70;;;12.30;99.90;;;;;;5071536;28;20436;-64
2021/10/27 02:03:54;;;;;;;11.97;7.03;;;12.30;99.90;;;;;;5071688;28;20578;-64
2021/10/27 02:06:20;;;;;;;14.87;7.33;;;12.30;99.90;;;;;;5071333;28;20624;-64
2021/10/27 02:08:47;;;;;;;11.80;6.97;;;12.40;99.90;;;;;;5071423;28;20201;-65
2021/10/27 02:11:15;;;;;;;11.73;7.23;;;12.30;93.60;;;;;;5071426;28;20236;-63
2021/10/27 02:13:41;;;;;;;12.47;6.70;;;12.30;99.90;;;;;;5071378;28;20219;-63
2021/10/27 02:16:09;;;;;;;14.07;6.80;;;12.30;99.90;;;;;;5070919;28;20673;-64
2021/10/27 02:18:36;;;;;;;13.70;7.10;;;12.40;52.80;;;;;;5071536;28;20731;-64
2021/10/27 02:21:03;;;;;;;11.03;7.17;;;12.40;1.00;;;;;;5071336;28;20634;-64
2021/10/27 02:23:30;;;;;;;11.77;7.50;;;12.40;1.00;;;;;;5071664;28;20212;-64
2021/10/27 02:25:57;;;;;;;13.00;8.00;;;12.40;1.00;;;;;;5070956;28;20675;-62
2021/10/27 02:28:25;;;;;;;11.67;7.30;;;12.30;2.20;;;;;;5071397;28;20906;-63
2021/10/27 02:30:52;;;;;;;12.07;7.93;;;12.40;1.00;;;;;;5072368;28;20734;-64
2021/10/27 02:33:18;;;;;;;16.40;7.57;;;12.40;1.00;;;;;;5075070;28;20593;-64
2021/10/27 02:35:45;;;;;;;12.63;7.87;;;12.40;33.50;;;;;;5074698;28;20618;-64
2021/10/27 02:38:11;;;;;;;10.83;7.30;;;12.40;99.90;;;;;;5074602;28;20209;-64
2021/10/27 02:40:38;;;;;;;12.33;7.70;;;12.30;99.90;;;;;;5074782;28;20232;-64
2021/10/27 02:43:05;;;;;;;11.87;7.13;;;12.40;49.00;;;;;;5074473;28;20705;-64
2021/10/27 02:45:33;;;;;;;11.57;7.60;;;12.40;1.00;;;;;;5074258;28;20212;-64
2021/10/27 02:48:00;;;;;;;11.90;6.93;;;12.40;1.00;;;;;;5074797;28;20681;-64
2021/10/27 02:50:26;;;;;;;11.73;6.73;;;12.40;99.90;;;;;;5074481;28;20811;-64
2021/10/27 02:52:53;;;;;;;11.20;7.07;;;12.40;1.00;;;;;;5074429;28;20233;-64
2021/10/27 02:55:19;;;;;;;10.77;7.47;;;12.40;1.00;;;;;;5074101;28;20211;-64
2021/10/27 02:57:46;;;;;;;11.43;6.90;;;12.40;1.00;;;;;;5074500;28;20211;-64
2021/10/27 03:00:14;;;;;;;12.60;6.87;;;12.40;1.00;;;;;;5074598;28;20225;-63
2021/10/27 03:02:42;;;;;;;9.50;6.90;;;12.40;1.00;;;;;;5074589;28;20232;-64
2021/10/27 03:05:09;;;;;;;9.93;6.47;;;12.50;1.00;;;;;;5074180;28;20676;-64
2021/10/27 03:07:36;;;;;;;14.40;7.37;;;12.50;99.90;;;;;;5074435;28;20201;-64
2021/10/27 03:10:03;;;;;;;11.00;7.03;;;12.50;99.90;;;;;;5074324;28;20204;-64
2021/10/27 03:12:30;;;;;;;10.50;7.60;;;12.50;99.90;;;;;;5074008;28;20232;-64
2021/10/27 03:14:56;;;;;;;12.63;7.33;;;12.50;99.90;;;;;;5073997;28;20258;-64
2021/10/27 03:17:23;;;;;;;12.00;6.73;;;12.50;99.90;;;;;;5074288;28;20209;-63
2021/10/27 03:19:51;;;;;;;10.07;7.40;;;12.50;99.90;;;;;;5074087;28;20274;-64
2021/10/27 03:22:18;;;;;;;10.90;7.57;;;12.50;99.90;;;;;;5074023;28;20732;-63
2021/10/27 03:24:44;;;;;;;9.73;7.37;;;12.50;99.90;;;;;;5073572;28;20205;-63
2021/10/27 03:27:11;;;;;;;13.10;8.53;;;12.50;99.90;;;;;;5073941;28;20670;-65
2021/10/27 03:29:38;;;;;;;12.40;7.67;;;12.50;99.90;;;;;;5073706;28;20712;-64
2021/10/27 03:32:05;;;;;;;11.43;7.20;;;12.50;99.90;;;;;;5073842;28;20225;-64
2021/10/27 03:34:31;;;;;;;11.03;7.70;;;12.50;99.90;;;;;;5073793;28;20219;-64
2021/10/27 03:36:59;;;;;;;14.10;7.03;;;12.50;92.70;;;;;;5073814;28;20257;-64
2021/10/27 03:39:26;;;;;;;9.43;6.80;;;12.50;29.10;;;;;;5073547;28;20290;-63
2021/10/27 03:41:52;;;;;;;11.90;7.40;;;12.60;14.50;;;;;;5072896;28;20281;-65
2021/10/27 03:44:19;;;;;;;12.50;6.53;;;12.60;1.00;;;;;;5073498;28;20227;-64
2021/10/27 03:46:46;;;;;;;13.27;7.17;;;12.50;1.00;;;;;;5073279;28;20254;-63
2021/10/27 03:49:13;;;;;;;10.40;6.33;;;12.50;1.00;;;;;;5073762;28;20203;-62
2021/10/27 03:51:39;;;;;;;9.97;7.20;;;12.50;1.00;;;;;;5073194;28;20235;-62
2021/10/27 03:54:07;;;;;;;9.80;7.33;;;12.50;1.00;;;;;;5073294;28;20207;-63
2021/10/27 03:56:34;;;;;;;16.27;8.07;;;12.50;1.00;;;;;;5073223;28;20205;-64
2021/10/27 03:59:01;;;;;;;9.60;7.60;;;12.40;7.70;;;;;;5073317;28;20209;-62
2021/10/27 04:01:28;;;;;;;10.23;6.63;;;12.40;99.90;;;;;;5073236;28;20236;-62
2021/10/27 04:03:54;;;;;;;10.57;7.03;;;12.40;92.80;;;;;;5073227;28;20205;-62
2021/10/27 04:06:21;;;;;;;10.07;6.83;;;12.40;99.90;;;;;;5072767;28;20211;-60
2021/10/27 04:08:47;;;;;;;11.70;7.37;;;12.40;99.90;;;;;;5072940;28;20215;-62
2021/10/27 04:11:15;;;;;;;11.50;7.13;;;12.40;99.90;;;;;;5073033;28;20709;-61
2021/10/27 04:13:42;;;;;;;10.73;6.33;;;12.40;99.90;;;;;;5073097;28;20211;-62
2021/10/27 04:16:09;;;;;;;11.37;6.40;;;12.40;99.90;;;;;;5072552;28;20614;-62
2021/10/27 04:18:36;;;;;;;12.63;7.20;;;12.40;99.90;;;;;;5070349;28;20212;-61
2021/10/27 04:21:02;;;;;;;9.87;5.83;;;12.40;68.70;;;;;;5072442;28;20235;-60
2021/10/27 04:23:29;;;;;;;10.13;5.40;;;12.40;5.00;;;;;;5072413;28;20668;-63
2021/10/27 04:25:56;;;;;;;10.27;5.80;;;12.40;1.00;;;;;;5062043;28;20253;-60
2021/10/27 04:28:24;;;;;;;11.70;5.63;;;12.50;1.00;;;;;;5072040;28;20212;-62
2021/10/27 04:30:51;;;;;;;10.43;5.70;;;12.40;1.00;;;;;;5072162;28;20204;-62
2021/10/27 04:33:18;;;;;;;10.80;5.43;;;12.40;1.00;;;;;;5072441;28;20268;-62
2021/10/27 04:35:45;;;;;;;8.40;5.23;;;12.40;1.00;;;;;;5071705;28;20253;-62
2021/10/27 04:38:13;;;;;;;11.00;5.53;;;12.40;99.90;;;;;;5071944;28;20744;-62
2021/10/27 04:40:40;;;;;;;12.37;5.27;;;12.40;99.90;;;;;;5072386;28;20233;-60
2021/10/27 04:43:07;;;;;;;9.83;5.40;;;12.40;99.90;;;;;;5072432;28;20572;-61
2021/10/27 04:45:35;;;;;;;9.53;5.60;;;12.40;99.90;;;;;;5071571;28;20268;-62
2021/10/27 04:48:02;;;;;;;9.30;5.10;;;12.40;99.90;;;;;;5072046;28;20209;-63
2021/10/27 04:50:29;;;;;;;8.90;5.17;;;12.40;1.00;;;;;;5071994;28;20738;-55
2021/10/27 04:52:56;;;;;;;15.87;5.80;;;12.40;99.90;;;;;;5071891;28;20324;-58
2021/10/27 04:55:23;;;;;;;12.93;5.73;;;12.40;1.00;;;;;;5071628;28;20266;-60
2021/10/27 04:57:50;;;;;;;10.93;5.53;;;12.30;1.00;;;;;;5072104;28;20215;-60
2021/10/27 05:00:17;;;;;;;12.33;5.83;;;12.30;1.00;;;;;;5071860;28;20223;-59
2021/10/27 05:02:45;;;;;;;7.30;5.20;;;12.30;1.00;;;;;;5071650;28;20717;-57
2021/10/27 05:05:12;;;;;;;9.93;5.00;;;12.40;1.00;;;;;;5071954;28;20253;-58
2021/10/27 05:07:43;;;;;;;11.33;5.73;;;12.40;1.00;;;;;;5071858;28;20208;-62
2021/10/27 05:10:10;;;;;;;9.47;5.37;;;12.40;99.90;;;;;;5071990;28;20193;-63
2021/10/27 05:12:37;;;;;;;9.33;5.27;;;12.40;99.90;;;;;;5055595;28;20285;-61
2021/10/27 05:15:04;;;;;;;8.57;4.97;;;12.40;99.90;;;;;;5063065;28;20197;-62
2021/10/27 05:17:30;;;;;;;7.57;4.50;;;12.40;99.90;;;;;;5071260;28;20269;-64
2021/10/27 05:19:58;;;;;;;8.53;4.60;;;12.40;99.90;;;;;;5075703;28;20288;-62
2021/10/27 05:22:26;;;;;;;9.20;4.80;;;12.40;99.90;;;;;;5071274;28;20287;-63
2021/10/27 05:24:53;;;;;;;7.67;4.83;;;12.40;99.90;;;;;;5071109;28;20213;-64
2021/10/27 05:27:20;;;;;;;8.90;4.83;;;12.40;99.90;;;;;;5071569;28;20208;-63
2021/10/27 05:29:47;;;;;;;9.77;4.70;;;12.40;99.90;;;;;;5070627;28;20223;-63
2021/10/27 05:32:14;;;;;;;9.10;4.47;;;12.40;99.90;;;;;;5071015;28;20281;-63
2021/10/27 05:34:42;;;;;;;10.23;4.23;;;12.40;91.70;;;;;;5070937;28;20671;-65
2021/10/27 05:37:11;;;;;;;8.10;4.23;;;12.50;1.00;;;;;;5071194;28;20211;-63
2021/10/27 05:39:38;;;;;;;7.87;4.30;;;12.50;1.00;;;;;;5071046;28;20210;-60
2021/10/27 05:42:09;;;;;;;7.57;3.90;;;12.50;1.00;;;;;;5070896;28;20278;-61
2021/10/27 05:44:35;;;;;;;8.07;3.80;;;12.50;1.00;;;;;;5070618;28;20210;-62
2021/10/27 05:47:02;;;;;;;8.57;4.17;;;12.50;1.00;;;;;;5071366;28;20214;-63
2021/10/27 05:49:34;;;;;;;5.60;3.17;;;12.60;1.00;;;;;;5071016;28;20269;-63
2021/10/27 05:52:06;;;;;;;7.73;3.27;;;12.60;1.00;;;;;;5070636;28;20280;-61
2021/10/27 05:57:18;;;;;;;8.20;3.93;;;12.60;99.90;;;;;;5071183;28;20568;-64
2021/10/27 05:59:47;;;;;;;6.47;3.33;;;12.60;99.90;;;;;;5070952;28;20216;-63
2021/10/27 06:02:13;;;;;;;7.17;3.60;;;12.60;99.90;;;;;;5070735;28;20227;-64
2021/10/27 06:04:40;;;;;;;6.10;3.20;;;12.60;99.90;;;;;;5070801;28;20220;-62
2021/10/27 06:07:07;;;;;;;7.77;3.23;;;12.60;99.90;;;;;;5074343;28;20251;-64
2021/10/27 06:09:37;;;;;;;6.67;3.80;;;12.60;99.90;;;;;;5074697;28;20201;-64
2021/10/27 06:12:07;;;;;;;5.40;3.63;;;12.60;99.90;;;;;;5074530;28;20672;-65
2021/10/27 06:14:35;;;;;;;8.93;3.93;;;12.60;99.90;;;;;;5074566;28;20266;-64
2021/10/27 06:17:02;;;;;;;9.23;3.90;;;12.50;1.00;;;;;;5074796;28;20205;-65
2021/10/27 06:19:28;;;;;;;10.63;4.40;;;12.50;1.00;;;;;;5074562;28;20205;-65
2021/10/27 06:21:55;;;;;;;9.30;3.53;;;12.50;1.00;;;;;;5074221;28;20281;-64
2021/10/27 06:24:22;;;;;;;9.10;3.87;;;12.50;1.00;;;;;;5074495;28;20200;-63
2021/10/27 06:26:51;;;;;;;7.53;3.67;;;12.50;1.00;;;;;;5074334;28;20215;-63
2021/10/27 06:29:22;;;;;;;8.47;3.70;;;12.50;1.00;;;;;;5074380;28;20313;-62
2021/10/27 06:31:53;;;;;;;6.53;3.47;;;12.50;1.00;;;;;;5074259;28;20356;-63
2021/10/27 06:34:29;;;;;;;10.90;4.53;;;12.50;1.00;;;;;;5073942;28;20592;-61
2021/10/27 06:37:07;;;;;;;9.00;3.93;;;12.50;1.00;;;;;;5074218;28;20242;-63
2021/10/27 06:48:03;;;;;;;8.73;4.73;;;12.50;99.90;;;;;;5074136;28;20622;-63
2021/10/27 06:50:30;;;;;;;5.30;4.07;;;12.50;99.90;;;;;;5073922;28;20422;-62
2021/10/27 06:52:56;;;;;;;6.83;4.33;;;12.50;99.90;;;;;;5073526;28;20235;-62
2021/10/27 06:55:23;;;;;;;5.63;3.90;;;12.50;99.90;;;;;;5073665;28;20325;-62
2021/10/27 06:57:52;;;;;;;7.90;4.43;;;12.50;99.90;;;;;;5074085;28;20215;-62
2021/10/27 07:00:22;;;;;;;8.47;3.97;;;12.50;99.90;;;;;;5073767;28;20227;-61
2021/10/27 07:03:05;;;;;;;8.50;3.73;;;12.50;99.90;;;;;;5073664;28;20258;-60
2021/10/27 07:16:34;;;;;;;8.47;3.97;;;12.60;99.90;;;;;;5073042;28;20206;-61
2021/10/27 07:19:01;;;;;;;6.53;3.63;;;12.60;99.90;;;;;;5073739;28;20218;-60
2021/10/27 07:21:27;;;;;;;8.43;4.03;;;12.60;99.90;;;;;;5073600;28;20257;-63
2021/10/27 07:23:54;;;;;;;6.80;3.80;;;12.70;99.90;;;;;;5073269;28;20208;-63
2021/10/27 07:26:21;;;;;;;6.13;3.67;;;12.70;99.90;;;;;;5072999;28;20707;-64
2021/10/27 07:28:53;;;;;;;7.80;3.30;;;12.70;99.90;;;;;;5073157;28;20568;-64
2021/10/27 07:31:20;;;;;;;5.57;3.50;;;12.70;99.90;;;;;;5073640;28;20322;-63
2021/10/27 07:33:53;;;;;;;11.07;3.57;;;12.70;99.90;;;;;;5072995;28;20266;-63
2021/10/27 07:36:41;;;;;;;5.60;3.20;;;12.80;99.90;;;;;;5072889;28;20632;-63
2021/10/27 07:41:52;;;;;;;6.03;3.17;;;12.70;99.90;;;;;;5072942;28;20227;-65
2021/10/27 07:44:21;;;;;;;6.27;3.10;;;12.80;99.90;;;;;;5073089;28;20295;-64
2021/10/27 07:46:47;;;;;;;6.83;3.60;;;12.80;99.90;;;;;;5072722;28;20257;-65
2021/10/27 07:49:14;;;;;;;5.80;3.27;;;12.90;99.90;;;;;;5073134;28;20218;-64
2021/10/27 07:51:41;;;;;;;6.03;3.63;;;12.80;99.90;;;;;;5072410;28;20944;-65
2021/10/27 07:54:08;;;;;;;5.47;3.13;;;12.90;99.90;;;;;;5073032;28;20611;-65
2021/10/27 07:56:35;;;;;;;5.33;3.17;;;12.90;99.90;;;;;;5072662;28;20212;-65
2021/10/27 07:59:02;;;;;;;6.93;3.23;;;12.90;99.90;;;;;;5072921;28;20205;-65
2021/10/27 08:01:30;;;;;;;4.93;3.17;;;12.90;99.90;;;;;;5072553;28;20319;-63
2021/10/27 08:03:58;;;;;;;7.03;3.67;;;12.90;99.90;;;;;;5072313;28;20262;-63
2021/10/27 08:06:25;;;;;;;8.03;3.73;;;12.90;99.90;;;;;;5072526;28;20201;-63
2021/10/27 08:08:52;;;;;;;8.73;4.23;;;12.90;99.90;;;;;;5072746;28;20205;-63
2021/10/27 08:11:18;;;;;;;6.27;3.63;;;12.80;99.90;;;;;;5072730;28;20248;-62
2021/10/27 08:13:45;;;;;;;6.73;3.90;;;12.90;99.90;;;;;;5072445;28;20223;-63
2021/10/27 08:16:12;;;;;;;8.07;4.23;;;12.90;99.90;;;;;;5072080;28;20212;-63
2021/10/27 08:18:40;;;;;;;4.77;3.30;;;12.80;99.90;;;;;;5072614;28;20597;-64
2021/10/27 08:21:07;;;;;;;6.00;3.30;;;12.80;99.90;;;;;;5072425;28;20287;-64
2021/10/27 08:23:38;;;;;;;9.17;3.70;;;12.80;99.90;;;;;;5072230;28;20211;-64
2021/10/27 08:26:08;;;;;;;7.17;3.87;;;12.90;99.90;;;;;;5072015;28;20208;-64
2021/10/27 08:28:38;;;;;;;4.60;3.27;;;12.90;99.90;;;;;;5071813;28;20216;-65
2021/10/27 08:31:09;;;;;;;5.90;3.23;;;13.00;99.90;;;;;;5072000;28;20228;-63
2021/10/27 08:33:46;;;;;;;10.70;3.67;;;13.00;99.90;;;;;;5071999;28;20204;-64
2021/10/27 08:36:14;;;;;;;8.73;3.43;;;13.00;99.90;;;;;;5072406;28;20208;-64
2021/10/27 08:38:41;;;;;;;6.97;3.20;;;13.00;99.90;;;;;;5072092;28;20212;-65
2021/10/27 08:41:08;;;;;;;6.43;3.03;;;13.00;99.90;;;;;;5071935;28;20232;-64
2021/10/27 08:43:34;;;;;;;6.47;3.10;;;13.00;99.90;;;;;;5071527;28;20205;-65
2021/10/27 08:46:02;;;;;;;7.23;3.20;;;13.00;99.90;;;;;;5071582;28;20213;-65
2021/10/27 08:48:30;;;;;;;8.13;3.57;;;13.00;99.90;;;;;;5072124;28;20204;-65
2021/10/27 08:50:57;;;;;;;10.20;3.73;;;13.00;99.90;;;;;;5071587;28;20217;-64
2021/10/27 08:53:25;;;;;;;6.50;3.50;;;13.10;99.90;;;;;;5071722;28;20211;-64
2021/10/27 08:55:52;;;;;;;5.73;3.63;;;13.10;99.90;;;;;;5071594;28;20208;-64
2021/10/27 08:58:23;;;;;;;5.43;3.30;;;13.10;98.10;;;;;;5071885;28;20304;-63
2021/10/27 09:00:58;;;;;;;5.87;3.30;;;13.00;94.70;;;;;;5071676;28;20220;-64
2021/10/27 09:03:36;;;;;;;5.47;3.40;;;13.10;96.10;;;;;;5071588;28;20204;-63
2021/10/27 09:06:19;;;;;;;4.50;3.17;;;13.10;92.50;;;;;;5071406;28;20703;-63
2021/10/27 09:34:15;;;;;;;5.97;3.07;;;13.30;39.10;;;;;;5071388;28;20250;-64
2021/10/27 09:36:50;;;;;;;7.67;3.67;;;13.30;30.70;;;;;;5071583;28;20251;-65
2021/10/27 09:48:04;;;;;;;5.80;3.27;;;13.40;24.90;;;;;;5075591;28;20331;-63
2021/10/27 10:04:25;;;;;;;5.57;3.10;;;13.30;14.20;;;;;;5075028;28;20240;-64
2021/10/27 10:06:53;;;;;;;7.43;3.40;;;13.30;17.50;;;;;;5074245;28;20208;-64
2021/10/27 10:09:20;;;;;;;5.40;3.30;;;13.40;13.10;;;;;;5076228;28;20208;-64
2021/10/27 10:11:49;;;;;;;6.33;2.93;;;13.40;6.00;;;;;;5074653;28;20225;-63
2021/10/27 10:14:18;;;;;;;8.13;3.13;;;13.40;6.00;;;;;;5074667;28;20205;-64
2021/10/27 10:16:47;;;;;;;8.10;3.30;;;13.50;6.50;;;;;;5074368;28;20300;-65
2021/10/27 10:19:17;;;;;;;6.77;3.40;;;13.50;6.00;;;;;;5074480;28;20205;-64
2021/10/27 10:21:45;;;;;;;8.40;3.67;;;13.60;6.90;;;;;;5074276;28;20283;-64
2021/10/27 10:24:32;;;;;;;8.07;3.20;;;13.60;1.00;;;;;;5074388;28;20577;-63
2021/10/27 10:27:01;;;;;;;4.67;3.03;;;13.70;1.00;;;;;;5074467;28;20303;-62
2021/10/27 10:29:55;;;;;;;6.73;3.33;;;13.80;1.00;;;;;;5074397;28;20211;-64
2021/10/27 10:32:39;;;;;;;8.93;3.07;;;13.90;1.00;;;;;;5074017;28;20247;-64
2021/10/27 10:35:21;;;;;;;6.83;3.10;;;14.00;1.00;;;;;;5074379;28;20208;-64
2021/10/27 10:37:54;;;;;;;5.33;3.30;;;14.10;1.00;;;;;;5074580;28;20236;-62
2021/10/27 10:58:14;;;;;;;6.10;3.20;;;14.60;1.00;;;;;;5074316;28;20728;-64
2021/10/27 11:03:46;;;;;;;8.37;2.67;;;14.80;1.00;;;;;;5073603;28;20697;-64
2021/10/27 11:23:43;;;;;;;6.00;2.97;;;14.90;1.00;;;;;;5073603;28;20685;-63
2021/10/27 11:37:43;;;;;;;5.20;2.43;;;15.10;1.00;;;;;;5108972;28;20198;-63
2021/10/27 11:40:26;;;;;;;7.80;2.40;;;15.30;1.00;;;;;;5109407;28;20694;-65
2021/10/27 11:42:56;;;;;;;5.17;2.63;;;15.50;1.00;;;;;;5109054;28;20223;-65
2021/10/27 11:45:39;;;;;;;3.87;2.33;;;15.50;1.00;;;;;;5109116;28;20203;-64
2021/10/27 11:48:11;;;;;;;6.97;3.03;;;15.60;1.00;;;;;;5108948;28;20227;-62
2021/10/27 11:50:40;;;;;;;7.17;2.70;;;15.50;1.00;;;;;;5109425;28;20652;-65
2021/10/27 11:53:24;;;;;;;8.37;2.60;;;15.70;1.00;;;;;;5108326;28;20224;-64
2021/10/27 11:55:54;;;;;;;6.97;2.80;;;15.80;1.00;;;;;;5106847;28;20211;-63
2021/10/27 11:58:23;;;;;;;8.27;2.27;;;15.80;1.00;;;;;;5109136;28;20210;-62
2021/10/27 12:00:59;;;;;;;6.60;2.50;;;15.90;1.00;;;;;;5108465;28;20205;-62
2021/10/27 12:03:36;;;;;;;4.77;2.00;;;15.90;1.00;;;;;;5108502;28;20613;-63
2021/10/27 12:06:05;;;;;;;4.23;2.03;;;16.00;1.00;;;;;;5108258;28;20256;-64
2021/10/27 12:08:40;;;;;;;5.93;2.47;;;16.10;1.00;;;;;;5108759;28;20227;-65
2021/10/27 12:14:00;;;;;;;5.80;2.10;;;16.00;1.00;;;;;;5100758;28;20218;-64
2021/10/27 12:19:24;;;;;;;8.03;2.43;;;15.90;1.00;;;;;;5108399;28;20203;-63
2021/10/27 12:21:53;;;;;;;4.07;1.83;;;16.00;1.00;;;;;;5108122;28;20223;-64
2021/10/27 12:24:23;;;;;;;6.00;2.00;;;16.10;1.00;;;;;;5107899;28;20257;-63
2021/10/27 12:26:56;;;;;;;2.90;1.77;;;16.20;1.00;;;;;;5108419;28;20204;-66
2021/10/27 12:29:26;;;;;;;6.03;2.30;;;16.20;1.00;;;;;;5108349;28;20223;-66
2021/10/27 12:32:06;;;;;;;8.13;2.50;;;16.30;1.00;;;;;;5107869;28;20243;-67
2021/10/27 12:34:35;;;;;;;5.47;2.20;;;16.20;1.00;;;;;;5107838;28;20211;-67
2021/10/27 12:37:20;;;;;;;4.33;1.87;;;16.20;1.00;;;;;;5107244;28;20215;-67
2021/10/27 12:39:47;;;;;;;5.00;2.00;;;16.20;1.00;;;;;;5099043;28;20269;-66
2021/10/27 12:42:14;;;;;;;4.43;2.37;;;16.20;1.00;;;;;;5094016;28;20311;-67
2021/10/27 12:44:47;;;;;;;5.73;2.00;;;16.30;1.00;;;;;;5094012;28;20623;-68
2021/10/27 12:47:17;;;;;;;4.47;2.00;;;16.30;1.00;;;;;;5094025;28;20687;-68
2021/10/27 12:49:46;;;;;;;6.00;2.30;;;16.30;1.00;;;;;;5094281;28;20216;-69
2021/10/27 12:52:28;;;;;;;3.50;2.10;;;16.30;1.00;;;;;;5093598;28;20235;-70
2021/10/27 12:55:26;;;;;;;4.23;2.10;;;16.30;1.00;;;;;;5092298;28;20289;-70
2021/10/27 12:58:03;;;;;;;5.80;2.20;;;16.40;1.00;;;;;;5059382;28;20215;-68
2021/10/27 13:00:46;;;;;;;7.17;2.60;;;16.40;1.00;;;;;;5093402;28;20196;-61
2021/10/27 13:06:10;;;;;;;4.70;2.00;;;16.30;1.00;;;;;;5076557;28;20303;-62
2021/10/27 13:11:42;;;;;;;6.73;2.40;;;16.30;1.00;;;;;;5094450;28;20223;-63
2021/10/27 13:14:18;;;;;;;5.93;2.03;;;16.40;1.00;;;;;;5094390;28;20212;-62
2021/10/27 13:19:57;;;;;;;2.87;1.40;;;16.40;1.00;;;;;;5052386;28;20675;-63
2021/10/27 13:22:33;;;;;;;3.70;1.70;;;16.50;1.00;;;;;;5094149;28;20221;-63
2021/10/27 13:30:32;;;;;;;4.27;2.10;;;16.90;1.00;;;;;;5094034;28;20199;-63
2021/10/27 13:33:01;;;;;;;6.47;1.83;;;17.00;1.00;;;;;;5093836;28;20722;-63
2021/10/27 13:35:33;;;;;;;4.70;1.73;;;16.90;1.00;;;;;;5093336;28;20212;-63
2021/10/27 13:38:00;;;;;;;6.90;2.20;;;16.80;1.00;;;;;;5094114;28;20196;-63
2021/10/27 13:40:27;;;;;;;5.47;1.97;;;16.80;1.00;;;;;;5093840;28;20640;-63
2021/10/27 13:42:58;;;;;;;5.07;1.87;;;16.70;1.00;;;;;;5093710;28;20773;-63
2021/10/27 13:45:30;;;;;;;5.10;1.87;;;16.70;1.00;;;;;;5093312;28;20200;-63
2021/10/27 13:48:07;;;;;;;3.83;2.10;;;16.60;1.00;;;;;;5093807;28;20246;-63
2021/10/27 13:59:11;;;;;;;3.83;2.20;;;16.10;1.00;;;;;;5093490;28;20208;-63
2021/10/27 14:07:17;;;;;;;3.43;2.53;;;16.10;1.00;;;;;;5093310;28;20687;-63
2021/10/27 14:09:48;;;;;;;5.30;2.30;;;15.90;1.00;;;;;;5093373;28;20348;-63
2021/10/27 14:12:23;;;;;;;7.27;2.80;;;16.00;1.00;;;;;;5093210;28;20231;-63
2021/10/27 14:15:03;;;;;;;6.63;2.57;;;15.90;1.00;;;;;;5092764;28;20302;-63
2021/10/27 14:17:45;;;;;;;4.57;2.40;;;15.90;1.00;;;;;;5093411;28;20208;-63
2021/10/27 14:59:23;;;;;;;6.07;2.50;;;15.70;1.00;;;;;;5092478;28;20200;-64
2021/10/27 15:21:15;;;;;;;4.30;2.10;;;15.30;1.00;;;;;;5009964;28;20260;-64
2021/10/27 15:23:56;;;;;;;7.27;2.23;;;15.30;1.00;;;;;;5009968;28;20211;-64
2021/10/27 15:29:19;;;;;;;8.33;3.03;;;15.20;1.00;;;;;;5091907;28;20230;-64
2021/10/27 15:32:11;;;;;;;7.53;2.27;;;15.10;1.00;;;;;;5091800;28;20565;-64
2021/10/27 15:34:53;;;;;;;4.97;2.30;;;15.10;1.00;;;;;;5091924;28;20230;-64
2021/10/27 15:42:54;;;;;;;5.00;2.47;;;15.00;1.00;;;;;;5091973;28;20296;-64
2021/10/27 15:45:41;;;;;;;3.33;2.23;;;14.90;1.00;;;;;;5091529;28;20545;-64
2021/10/27 15:50:56;;;;;;;7.47;2.50;;;14.80;1.00;;;;;;5091766;28;20225;-64
2021/10/27 15:53:23;;;;;;;8.23;2.87;;;14.60;1.00;;;;;;5092035;28;20299;-64
2021/10/27 15:55:49;;;;;;;3.10;2.30;;;14.60;1.00;;;;;;5091609;28;20204;-64
2021/10/27 15:58:17;;;;;;;4.03;2.53;;;14.60;1.00;;;;;;5091931;28;20196;-64
2021/10/27 16:00:45;;;;;;;6.30;2.33;;;14.50;1.00;;;;;;5091809;28;20204;-64
2021/10/27 16:03:12;;;;;;;5.03;2.70;;;14.40;1.00;;;;;;5072579;28;20752;-64
2021/10/27 16:05:41;;;;;;;5.00;2.60;;;14.50;1.00;;;;;;5071297;28;20586;-64
2021/10/27 16:08:08;;;;;;;7.70;2.90;;;14.30;1.00;;;;;;5071421;28;20235;-64
2021/10/27 16:10:35;;;;;;;3.90;2.40;;;14.30;1.00;;;;;;5071569;28;20619;-63
2021/10/27 16:13:02;;;;;;;5.30;2.50;;;14.30;1.00;;;;;;5086250;28;20231;-64
2021/10/27 16:15:37;;;;;;;5.63;2.97;;;14.20;1.00;;;;;;5094037;28;20283;-64
2021/10/27 16:18:06;;;;;;;7.87;2.50;;;14.10;1.00;;;;;;5095797;28;20589;-64
2021/10/27 16:20:35;;;;;;;6.47;2.57;;;14.00;1.00;;;;;;5095469;28;20234;-64
2021/10/27 16:23:02;;;;;;;6.30;2.70;;;14.00;1.00;;;;;;5095494;28;20318;-64
2021/10/27 16:25:29;;;;;;;4.43;2.50;;;13.90;1.00;;;;;;5095094;28;20688;-64
2021/10/27 16:27:56;;;;;;;5.93;2.87;;;13.80;1.00;;;;;;5094990;28;20216;-64
2021/10/27 16:30:23;;;;;;;5.63;2.53;;;13.80;1.00;;;;;;5095011;28;20627;-65
2021/10/27 16:32:50;;;;;;;6.67;2.70;;;13.80;1.00;;;;;;5095251;28;20235;-64
2021/10/27 16:35:18;;;;;;;5.03;2.83;;;13.70;1.00;;;;;;5095147;28;20242;-64
2021/10/27 16:37:45;;;;;;;6.33;2.93;;;13.70;1.00;;;;;;5095242;28;20201;-64
2021/10/27 16:40:13;;;;;;;6.63;2.93;;;13.70;1.00;;;;;;5095035;28;20239;-64
2021/10/27 16:42:39;;;;;;;3.63;2.43;;;13.70;1.00;;;;;;5094751;28;20228;-64
2021/10/27 16:45:08;;;;;;;8.27;2.67;;;13.60;1.00;;;;;;5094755;28;20846;-63